createdAt,value
2023-04-21T00:00:09.030Z,11.82
2023-04-21T00:02:42.407Z,11.30
2023-04-21T00:05:11.095Z,11.65
2023-04-21T00:07:39.582Z,11.40
2023-04-21T00:10:08.217Z,11.25
2023-04-21T00:12:35.435Z,11.27
2023-04-21T00:15:03.017Z,10.55
2023-04-21T00:17:30.084Z,12.18
2023-04-21T00:19:58.679Z,11.13
2023-04-21T00:22:25.810Z,11.88
2023-04-21T00:24:52.905Z,11.45
2023-04-21T00:27:19.917Z,11.80
2023-04-21T00:29:48.942Z,11.63
2023-04-21T00:32:16.468Z,11.43
2023-04-21T00:34:43.621Z,11.70
2023-04-21T00:37:12.364Z,11.60
2023-04-21T00:39:39.941Z,11.05
2023-04-21T00:42:07.046Z,10.77
2023-04-21T00:44:35.762Z,12.05
2023-04-21T00:47:03.996Z,11.43
2023-04-21T00:49:31.240Z,11.00
2023-04-21T00:51:58.758Z,11.10
2023-04-21T00:54:28.586Z,11.52
2023-04-21T00:56:58.584Z,11.60
2023-04-21T00:59:28.296Z,11.48
2023-04-21T01:01:57.256Z,10.98
2023-04-21T01:04:24.390Z,11.32
2023-04-21T01:06:52.262Z,11.35
2023-04-21T01:09:19.774Z,10.88
2023-04-21T01:12:06.168Z,10.75
2023-04-21T01:14:35.774Z,11.57
2023-04-21T01:17:08.079Z,11.77
2023-04-21T01:19:42.059Z,11.05
2023-04-21T01:22:13.217Z,11.27
2023-04-21T01:24:47.600Z,11.05
2023-04-21T01:27:19.920Z,11.75
2023-04-21T01:29:51.916Z,10.80
2023-04-21T01:32:21.797Z,10.70
2023-04-21T01:34:50.311Z,11.88
2023-04-21T01:37:20.793Z,11.80
2023-04-21T01:39:54.577Z,11.65
2023-04-21T01:42:24.645Z,11.38
2023-04-21T01:44:54.107Z,12.07
2023-04-21T01:47:21.927Z,11.00
2023-04-21T01:49:48.984Z,11.50
2023-04-21T01:52:16.433Z,10.80
2023-04-21T01:54:43.543Z,11.75
2023-04-21T01:57:11.258Z,11.25
2023-04-21T01:59:38.616Z,11.75
2023-04-21T02:02:05.860Z,11.23
2023-04-21T02:04:34.363Z,11.20
2023-04-21T02:07:01.972Z,10.45
2023-04-21T02:09:29.066Z,10.73
2023-04-21T02:11:57.337Z,11.70
2023-04-21T02:14:27.546Z,10.27
2023-04-21T02:16:56.430Z,10.82
2023-04-21T02:19:24.378Z,10.52
2023-04-21T02:21:51.424Z,10.48
2023-04-21T02:24:22.410Z,11.10
2023-04-21T02:26:49.476Z,11.20
2023-04-21T02:29:16.940Z,11.20
2023-04-21T02:31:57.910Z,10.75
2023-04-21T02:34:30.525Z,11.20
2023-04-21T02:36:57.880Z,10.68
2023-04-21T02:39:26.595Z,10.85
2023-04-21T02:41:53.569Z,10.65
2023-04-21T02:44:21.348Z,11.23
2023-04-21T02:46:48.464Z,11.43
2023-04-21T02:49:15.523Z,10.27
2023-04-21T02:51:42.615Z,10.38
2023-04-21T02:54:09.691Z,10.57
2023-04-21T02:56:36.798Z,10.43
2023-04-21T02:59:03.888Z,10.65
2023-04-21T03:01:30.917Z,9.95
2023-04-21T03:03:58.107Z,11.52
2023-04-21T03:06:25.454Z,10.70
2023-04-21T03:08:52.478Z,11.18
2023-04-21T03:11:19.510Z,11.10
2023-04-21T03:13:46.478Z,10.70
2023-04-21T03:16:13.750Z,10.70
2023-04-21T03:18:44.248Z,10.38
2023-04-21T03:21:12.315Z,9.88
2023-04-21T03:23:39.490Z,9.60
2023-04-21T03:26:10.069Z,10.02
2023-04-21T03:28:37.147Z,10.02
2023-04-21T03:31:04.192Z,10.45
2023-04-21T03:33:31.367Z,10.57
2023-04-21T03:35:58.532Z,9.40
2023-04-21T03:38:25.559Z,10.90
2023-04-21T03:40:52.669Z,10.75
2023-04-21T03:43:19.720Z,10.32
2023-04-21T03:45:46.867Z,10.00
2023-04-21T03:48:13.954Z,10.18
2023-04-21T03:50:41.201Z,9.98
2023-04-21T03:53:08.229Z,11.52
2023-04-21T03:55:35.527Z,10.60
2023-04-21T03:58:02.979Z,10.23
2023-04-21T04:00:30.093Z,9.98
2023-04-21T04:02:57.302Z,10.35
2023-04-21T04:05:24.704Z,10.80
2023-04-21T04:07:51.784Z,10.80
2023-04-21T04:10:18.972Z,10.10
2023-04-21T04:12:46.035Z,10.13
2023-04-21T04:15:13.166Z,10.55
2023-04-21T04:17:40.256Z,9.98
2023-04-21T04:20:08.651Z,10.45
2023-04-21T04:22:35.972Z,10.38
2023-04-21T04:25:04.064Z,10.30
2023-04-21T04:27:31.186Z,10.65
2023-04-21T04:29:58.230Z,8.73
2023-04-21T04:32:28.591Z,9.82
2023-04-21T04:34:56.097Z,9.43
2023-04-21T04:37:23.160Z,10.00
2023-04-21T04:39:53.753Z,9.93
2023-04-21T04:42:20.829Z,9.15
2023-04-21T04:44:48.254Z,9.45
2023-04-21T04:47:15.464Z,9.63
2023-04-21T04:49:42.543Z,8.90
2023-04-21T04:52:09.741Z,9.43
2023-04-21T04:54:36.803Z,9.68
2023-04-21T04:57:03.900Z,9.68
2023-04-21T04:59:31.447Z,10.00
2023-04-21T05:01:58.610Z,10.05
2023-04-21T05:04:26.306Z,9.13
2023-04-21T05:06:53.946Z,9.25
2023-04-21T05:09:21.089Z,9.27
2023-04-21T05:11:48.200Z,9.52
2023-04-21T05:14:15.360Z,9.07
2023-04-21T05:16:44.079Z,8.98
2023-04-21T05:19:11.403Z,9.23
2023-04-21T05:21:38.560Z,8.48
2023-04-21T05:24:05.841Z,9.07
2023-04-21T05:26:32.978Z,9.30
2023-04-21T05:29:00.047Z,8.38
2023-04-21T05:31:27.310Z,8.85
2023-04-21T05:33:54.517Z,9.35
2023-04-21T05:36:21.608Z,8.90
2023-04-21T05:38:48.625Z,9.32
2023-04-21T05:41:16.226Z,9.02
2023-04-21T05:43:43.461Z,8.88
2023-04-21T05:46:14.065Z,9.30
2023-04-21T05:48:41.766Z,9.60
2023-04-21T05:51:14.107Z,9.20
2023-04-21T05:53:41.571Z,9.20
2023-04-21T05:56:12.095Z,9.23
2023-04-21T05:58:39.262Z,8.73
2023-04-21T06:01:09.305Z,8.55
2023-04-21T06:03:36.769Z,8.40
2023-04-21T06:06:06.027Z,8.13
2023-04-21T06:08:33.428Z,8.32
2023-04-21T06:11:00.594Z,7.45
2023-04-21T06:13:27.923Z,7.65
2023-04-21T06:15:55.691Z,7.25
2023-04-21T06:18:24.180Z,8.05
2023-04-21T06:20:52.217Z,7.07
2023-04-21T06:23:19.559Z,7.53
2023-04-21T06:25:46.806Z,7.50
2023-04-21T06:28:14.021Z,7.43
2023-04-21T06:30:41.163Z,7.78
2023-04-21T06:33:08.282Z,7.68
2023-04-21T06:35:35.757Z,6.50
2023-04-21T06:38:02.835Z,6.80
2023-04-21T06:40:31.279Z,6.80
2023-04-21T06:42:58.326Z,7.25
2023-04-21T06:45:25.652Z,6.75
2023-04-21T06:47:52.777Z,6.57
2023-04-21T06:50:19.926Z,7.18
2023-04-21T06:52:46.964Z,6.72
2023-04-21T06:55:14.210Z,6.75
2023-04-21T06:57:41.434Z,6.70
2023-04-21T07:00:09.954Z,7.03
2023-04-21T07:02:37.191Z,6.18
2023-04-21T07:05:04.672Z,6.93
2023-04-21T07:07:31.795Z,5.70
2023-04-21T07:09:58.965Z,5.90
2023-04-21T07:12:26.086Z,6.50
2023-04-21T07:14:53.177Z,6.35
2023-04-21T07:17:20.251Z,5.85
2023-04-21T07:19:47.465Z,5.53
2023-04-21T07:22:14.553Z,5.72
2023-04-21T07:24:41.700Z,5.97
2023-04-21T07:27:09.041Z,5.57
2023-04-21T07:29:37.470Z,5.60
2023-04-21T07:32:04.596Z,4.88
2023-04-21T07:34:31.783Z,5.57
2023-04-21T07:36:58.975Z,5.60
2023-04-21T07:39:26.393Z,5.45
2023-04-21T07:41:54.179Z,5.40
2023-04-21T07:44:21.378Z,5.65
2023-04-21T07:46:48.418Z,5.07
2023-04-21T07:49:15.818Z,5.00
2023-04-21T07:51:42.856Z,5.40
2023-04-21T07:54:10.300Z,5.03
2023-04-21T07:56:37.387Z,5.50
2023-04-21T07:59:04.468Z,5.30
2023-04-21T08:01:31.613Z,6.68
2023-04-21T08:03:58.930Z,5.85
2023-04-21T08:06:26.312Z,5.55
2023-04-21T08:08:55.133Z,5.35
2023-04-21T08:11:22.648Z,5.93
2023-04-21T08:13:50.329Z,5.22
2023-04-21T08:16:17.524Z,5.30
2023-04-21T08:18:44.651Z,5.30
2023-04-21T08:21:11.750Z,5.40
2023-04-21T08:23:38.829Z,4.90
2023-04-21T08:26:06.113Z,5.25
2023-04-21T08:28:33.290Z,5.40
2023-04-21T08:31:00.821Z,4.88
2023-04-21T08:33:28.163Z,4.80
2023-04-21T08:36:03.969Z,5.20
2023-04-21T08:38:35.760Z,4.93
2023-04-21T08:41:04.566Z,5.03
2023-04-21T08:43:31.741Z,4.88
2023-04-21T08:46:00.056Z,4.55
2023-04-21T08:48:29.863Z,5.07
2023-04-21T08:50:57.307Z,4.90
2023-04-21T08:53:24.360Z,4.45
2023-04-21T08:56:07.487Z,4.32
2023-04-21T08:58:38.370Z,4.22
2023-04-21T09:01:06.015Z,4.03
2023-04-21T09:03:33.410Z,4.30
2023-04-21T09:06:02.909Z,3.90
2023-04-21T09:08:30.999Z,4.10
2023-04-21T09:10:59.957Z,3.83
2023-04-21T09:13:32.612Z,3.80
2023-04-21T09:16:04.646Z,3.78
2023-04-21T09:18:36.581Z,3.40
2023-04-21T09:21:11.525Z,3.97
2023-04-21T09:23:48.548Z,3.30
2023-04-21T09:26:17.907Z,3.72
2023-04-21T09:28:47.369Z,3.63
2023-04-21T09:31:16.969Z,3.50
2023-04-21T09:36:24.613Z,3.53
2023-04-21T09:39:12.481Z,3.80
2023-04-21T09:41:41.500Z,3.83
2023-04-21T09:44:08.604Z,3.58
2023-04-21T09:46:37.381Z,3.67
2023-04-21T09:49:06.023Z,3.58
2023-04-21T09:56:53.319Z,3.83
2023-04-21T09:59:25.174Z,3.80
2023-04-21T10:01:54.121Z,3.80
2023-04-21T10:04:24.195Z,3.50
2023-04-21T10:09:21.912Z,3.50
2023-04-21T10:11:49.040Z,3.22
2023-04-21T10:14:16.216Z,3.67
2023-04-21T10:16:43.700Z,3.50
2023-04-21T10:19:28.298Z,4.25
2023-04-21T10:21:59.064Z,3.90
2023-04-21T10:24:30.231Z,3.60
2023-04-21T10:27:02.315Z,3.97
2023-04-21T10:29:47.991Z,3.55
2023-04-21T10:33:05.762Z,3.47
2023-04-21T10:36:01.764Z,3.10
2023-04-21T10:38:44.622Z,2.90
2023-04-21T10:41:37.568Z,3.55
2023-04-21T10:44:10.511Z,3.40
2023-04-21T10:46:40.279Z,3.28
2023-04-21T10:49:12.061Z,3.25
2023-04-21T10:52:00.628Z,3.13
2023-04-21T10:54:31.493Z,3.38
2023-04-21T10:56:59.469Z,3.08
2023-04-21T10:59:29.323Z,2.97
2023-04-21T11:01:57.416Z,3.33
2023-04-21T11:04:25.189Z,2.80
2023-04-21T11:07:12.207Z,2.78
2023-04-21T11:09:41.051Z,2.90
2023-04-21T11:12:13.322Z,2.78
2023-04-21T11:14:42.028Z,2.55
2023-04-21T11:17:14.205Z,3.13
2023-04-21T11:19:41.936Z,2.70
2023-04-21T11:22:09.001Z,2.63
2023-04-21T11:24:36.651Z,2.97
2023-04-21T11:27:04.215Z,2.50
2023-04-21T11:29:31.652Z,2.95
2023-04-21T11:31:59.445Z,2.72
2023-04-21T11:34:27.271Z,2.90
2023-04-21T11:36:54.417Z,2.75
2023-04-21T11:39:22.178Z,2.65
2023-04-21T11:41:51.473Z,2.55
2023-04-21T11:44:54.975Z,2.80
2023-04-21T11:47:25.367Z,2.30
2023-04-21T11:49:59.760Z,2.70
2023-04-21T11:52:29.269Z,2.80
2023-04-21T11:55:00.247Z,2.67
2023-04-21T11:57:28.706Z,2.47
2023-04-21T12:00:02.467Z,2.70
2023-04-21T12:02:32.822Z,2.70
2023-04-21T12:05:06.094Z,2.45
2023-04-21T12:07:43.087Z,2.50
2023-04-21T12:10:12.644Z,2.53
2023-04-21T12:12:41.332Z,2.77
2023-04-21T12:15:10.901Z,2.88
2023-04-21T12:17:49.058Z,2.87
2023-04-21T12:20:18.155Z,2.53
2023-04-21T12:22:46.117Z,2.40
2023-04-21T12:25:14.058Z,3.28
2023-04-21T12:27:57.626Z,2.58
2023-04-21T12:30:24.869Z,2.95
2023-04-21T12:32:52.538Z,2.35
2023-04-21T12:35:19.688Z,2.67
2023-04-21T12:37:46.910Z,2.80
2023-04-21T12:40:14.008Z,2.97
2023-04-21T12:42:41.085Z,2.67
2023-04-21T12:45:08.691Z,2.70
2023-04-21T12:47:37.648Z,2.97
2023-04-21T12:50:05.453Z,3.00
2023-04-21T12:52:32.584Z,2.88
2023-04-21T12:54:59.799Z,3.20
2023-04-21T12:57:27.042Z,2.67
2023-04-21T12:59:54.224Z,2.38
2023-04-21T13:02:21.467Z,2.70
2023-04-21T13:04:48.704Z,2.80
2023-04-21T13:07:16.402Z,3.35
2023-04-21T13:09:43.824Z,2.60
2023-04-21T13:12:10.859Z,2.92
2023-04-21T13:14:38.028Z,2.75
2023-04-21T13:17:05.426Z,2.83
2023-04-21T13:19:32.868Z,2.63
2023-04-21T13:22:00.213Z,3.05
2023-04-21T13:24:27.426Z,3.30
2023-04-21T13:26:54.806Z,3.08
2023-04-21T13:29:21.911Z,3.13
2023-04-21T13:31:48.981Z,2.80
2023-04-21T13:34:16.155Z,2.97
2023-04-21T13:36:43.429Z,2.80
2023-04-21T13:39:11.353Z,2.58
2023-04-21T13:41:38.475Z,2.75
2023-04-21T13:44:05.957Z,2.95
2023-04-21T13:46:33.251Z,3.35
2023-04-21T13:49:00.407Z,3.00
2023-04-21T13:51:27.457Z,2.97
2023-04-21T13:53:54.813Z,2.90
2023-04-21T13:56:22.156Z,2.90
2023-04-21T13:58:49.358Z,3.03
2023-04-21T14:01:17.546Z,2.80
2023-04-21T14:03:46.069Z,3.20
2023-04-21T14:06:13.425Z,2.70
2023-04-21T14:08:40.831Z,2.88
2023-04-21T14:11:08.019Z,2.78
2023-04-21T14:13:39.789Z,3.03
2023-04-21T14:16:12.018Z,2.70
2023-04-21T14:18:44.562Z,2.85
2023-04-21T14:21:12.205Z,3.08
2023-04-21T14:23:39.552Z,3.08
2023-04-21T14:26:06.724Z,3.10
2023-04-21T14:28:33.802Z,2.90
2023-04-21T14:31:00.922Z,2.97
2023-04-21T14:33:29.015Z,3.28
2023-04-21T14:35:56.826Z,3.22
2023-04-21T14:38:24.644Z,3.10
2023-04-21T14:40:54.689Z,2.97
2023-04-21T14:43:22.500Z,3.30
2023-04-21T14:45:49.674Z,3.00
2023-04-21T14:48:16.984Z,3.22
2023-04-21T14:50:44.144Z,3.10
2023-04-21T14:53:11.414Z,2.92
2023-04-21T14:55:38.502Z,3.05
2023-04-21T14:58:05.693Z,2.97
2023-04-21T15:00:34.881Z,2.78
2023-04-21T15:03:02.779Z,3.13
2023-04-21T15:05:30.360Z,2.92
2023-04-21T15:07:57.533Z,2.80
2023-04-21T15:10:24.742Z,3.28
2023-04-21T15:12:51.876Z,2.97
2023-04-21T15:15:19.013Z,2.97
2023-04-21T15:17:46.146Z,3.95
2023-04-21T15:20:13.328Z,3.03
2023-04-21T15:22:41.328Z,3.28
2023-04-21T15:25:08.817Z,3.00
2023-04-21T15:27:36.999Z,3.17
2023-04-21T15:30:04.756Z,3.15
2023-04-21T15:32:31.885Z,3.55
2023-04-21T15:34:59.113Z,3.55
2023-04-21T15:37:26.256Z,3.00
2023-04-21T15:39:53.529Z,2.88
2023-04-21T15:42:20.810Z,3.30
2023-04-21T15:44:48.154Z,2.85
2023-04-21T15:47:18.121Z,2.80
2023-04-21T15:49:45.557Z,3.00
2023-04-21T15:52:12.853Z,2.80
2023-04-21T15:54:41.059Z,2.60
2023-04-21T15:57:08.280Z,2.65
2023-04-21T15:59:35.450Z,3.10
2023-04-21T16:02:03.246Z,2.75
2023-04-21T16:04:30.945Z,3.03
2023-04-21T16:06:58.076Z,2.83
2023-04-21T16:09:25.285Z,3.10
2023-04-21T16:11:52.467Z,3.20
2023-04-21T16:14:19.671Z,2.95
2023-04-21T16:16:46.948Z,2.95
2023-04-21T16:19:14.226Z,2.78
2023-04-21T16:21:42.687Z,2.90
2023-04-21T16:24:10.112Z,2.58
2023-04-21T16:26:37.324Z,3.28
2023-04-21T16:29:04.528Z,3.03
2023-04-21T16:31:31.850Z,2.90
2023-04-21T16:34:00.281Z,4.82
2023-04-21T16:36:32.569Z,2.90
2023-04-21T16:38:59.946Z,3.05
2023-04-21T16:41:27.088Z,3.08
2023-04-21T16:43:54.170Z,2.97
2023-04-21T16:46:21.412Z,3.20
2023-04-21T16:48:48.615Z,3.67
2023-04-21T16:51:15.813Z,3.13
2023-04-21T16:53:42.877Z,3.08
2023-04-21T16:56:10.328Z,3.30
2023-04-21T16:58:37.917Z,3.35
2023-04-21T17:01:07.726Z,3.80
2023-04-21T17:03:35.261Z,3.63
2023-04-21T17:06:05.067Z,3.50
2023-04-21T17:08:32.241Z,3.63
2023-04-21T17:11:00.188Z,4.30
2023-04-21T17:13:27.391Z,4.50
2023-04-21T17:15:54.686Z,3.90
2023-04-21T17:18:21.752Z,4.38
2023-04-21T17:20:48.798Z,3.70
2023-04-21T17:23:15.918Z,3.70
2023-04-21T17:25:43.203Z,4.32
2023-04-21T17:28:10.309Z,4.10
2023-04-21T17:30:37.376Z,4.25
2023-04-21T17:33:16.370Z,3.85
2023-04-21T17:35:59.845Z,3.83
2023-04-21T17:38:29.727Z,4.15
2023-04-21T17:40:56.856Z,4.32
2023-04-21T17:43:24.423Z,4.90
2023-04-21T17:45:52.507Z,4.85
2023-04-21T17:48:21.212Z,5.43
2023-04-21T17:50:48.242Z,5.65
2023-04-21T17:53:15.706Z,5.25
2023-04-21T17:55:42.859Z,4.88
2023-04-21T17:58:12.309Z,5.60
2023-04-21T18:00:39.902Z,5.35
2023-04-21T18:03:07.142Z,5.03
2023-04-21T18:05:34.509Z,5.25
2023-04-21T18:08:02.368Z,5.38
2023-04-21T18:10:30.077Z,5.50
2023-04-21T18:12:57.721Z,6.30
2023-04-21T18:15:25.031Z,5.03
2023-04-21T18:17:53.382Z,5.00
2023-04-21T18:20:20.763Z,4.80
2023-04-21T18:22:49.088Z,4.53
2023-04-21T18:25:22.083Z,4.63
2023-04-21T18:27:54.533Z,4.57
2023-04-21T18:30:21.670Z,4.55
2023-04-21T18:32:48.819Z,4.28
2023-04-21T18:35:15.922Z,4.28
2023-04-21T18:37:43.439Z,4.25
2023-04-21T18:40:10.919Z,3.70
2023-04-21T18:42:39.396Z,3.70
2023-04-21T18:45:07.349Z,3.80
2023-04-21T18:47:35.071Z,4.00
2023-04-21T18:50:02.166Z,4.40
2023-04-21T18:52:29.211Z,3.90
2023-04-21T18:54:56.468Z,4.00
2023-04-21T18:57:23.585Z,3.65
2023-04-21T18:59:50.598Z,3.83
2023-04-21T19:02:18.100Z,3.85
2023-04-21T19:04:45.790Z,4.63
2023-04-21T19:07:15.769Z,5.30
2023-04-21T19:09:44.428Z,4.90
2023-04-21T19:12:11.710Z,4.47
2023-04-21T19:14:46.503Z,4.63
2023-04-21T19:17:14.688Z,4.88
2023-04-21T19:19:42.525Z,4.68
2023-04-21T19:22:09.681Z,4.75
2023-04-21T19:24:36.913Z,4.10
2023-04-21T19:27:06.252Z,4.72
2023-04-21T19:29:33.411Z,4.68
2023-04-21T19:32:00.610Z,4.93
2023-04-21T19:34:27.822Z,4.38
2023-04-21T19:36:54.918Z,4.60
2023-04-21T19:39:22.055Z,4.35
2023-04-21T19:41:49.181Z,4.68
2023-04-21T19:44:16.392Z,4.50
2023-04-21T19:46:43.804Z,5.25
2023-04-21T19:49:14.210Z,5.68
2023-04-21T19:54:11.926Z,5.78
2023-04-21T19:56:40.780Z,5.53
2023-04-21T19:59:08.279Z,5.88
2023-04-21T20:01:35.639Z,5.88
2023-04-21T20:04:03.941Z,5.70
2023-04-21T20:06:32.181Z,5.97
2023-04-21T20:08:59.458Z,5.95
2023-04-21T20:11:28.927Z,6.32
2023-04-21T20:13:56.274Z,5.97
2023-04-21T20:16:24.052Z,6.10
2023-04-21T20:18:51.235Z,5.50
2023-04-21T20:21:18.330Z,5.78
2023-04-21T20:23:45.398Z,5.07
2023-04-21T20:26:12.706Z,5.55
2023-04-21T20:28:39.827Z,5.38
2023-04-21T20:31:07.286Z,5.97
2023-04-21T20:33:34.577Z,5.30
2023-04-21T20:36:07.404Z,4.97
2023-04-21T20:38:35.571Z,5.68
2023-04-21T20:41:03.473Z,5.22
2023-04-21T20:43:33.388Z,5.22
2023-04-21T20:46:04.478Z,5.68
2023-04-21T20:48:31.577Z,5.25
2023-04-21T20:50:58.628Z,4.30
2023-04-21T20:53:26.336Z,4.30
2023-04-21T20:55:53.504Z,4.15
2023-04-21T20:58:20.631Z,4.30
2023-04-21T21:00:47.817Z,3.88
2023-04-21T21:03:15.146Z,4.30
2023-04-21T21:05:42.533Z,3.60
2023-04-21T21:08:10.143Z,4.25
2023-04-21T21:10:37.290Z,3.88
2023-04-21T21:13:04.354Z,3.90
2023-04-21T21:15:31.500Z,4.18
2023-04-21T21:17:58.894Z,4.18
2023-04-21T21:20:26.410Z,4.05
2023-04-21T21:22:53.542Z,3.83
2023-04-21T21:25:20.798Z,3.92
2023-04-21T21:27:48.025Z,4.38
2023-04-21T21:30:15.315Z,4.30
2023-04-21T21:32:42.404Z,3.78
2023-04-21T21:35:10.476Z,3.83
2023-04-21T21:37:38.236Z,4.28
2023-04-21T21:40:06.435Z,4.15
2023-04-21T21:42:33.495Z,3.80
2023-04-21T21:45:01.124Z,4.10
2023-04-21T21:47:28.492Z,4.22
2023-04-21T21:49:57.938Z,4.05
2023-04-21T21:52:25.310Z,4.25
2023-04-21T21:54:52.865Z,4.63
2023-04-21T21:57:20.011Z,4.05
2023-04-21T21:59:48.556Z,3.80
2023-04-21T22:02:16.086Z,4.00
2023-04-21T22:04:44.008Z,4.10
2023-04-21T22:07:11.252Z,4.22
2023-04-21T22:09:40.201Z,4.00
2023-04-21T22:12:07.665Z,3.67
2023-04-21T22:14:35.370Z,3.33
2023-04-21T22:17:03.046Z,3.30
2023-04-21T22:19:31.292Z,3.38
2023-04-21T22:21:58.482Z,3.20
2023-04-21T22:24:25.851Z,3.53
2023-04-21T22:26:52.957Z,3.40
2023-04-21T22:29:20.044Z,3.75
2023-04-21T22:31:47.805Z,3.50
2023-04-21T22:34:19.850Z,4.15
2023-04-21T22:36:46.937Z,4.43
2023-04-21T22:39:14.008Z,4.20
2023-04-21T22:41:41.318Z,3.75
2023-04-21T22:44:08.823Z,3.60
2023-04-21T22:46:36.623Z,3.55
2023-04-21T22:49:04.086Z,3.70
2023-04-21T22:51:32.757Z,4.40
2023-04-21T22:54:00.650Z,4.15
2023-04-21T22:56:28.704Z,4.35
2023-04-21T22:58:55.924Z,4.18
2023-04-21T23:01:23.312Z,3.80
2023-04-21T23:03:51.020Z,3.90
2023-04-21T23:06:18.260Z,4.05
2023-04-21T23:08:45.399Z,3.85
2023-04-21T23:11:12.912Z,3.88
2023-04-21T23:13:40.189Z,4.00
2023-04-21T23:16:07.316Z,4.97
2023-04-21T23:18:34.383Z,5.03
2023-04-21T23:21:01.688Z,4.45
2023-04-21T23:23:28.786Z,4.18
2023-04-21T23:25:56.078Z,4.47
2023-04-21T23:28:24.432Z,4.03
2023-04-21T23:30:51.567Z,3.92
2023-04-21T23:33:18.803Z,4.28
2023-04-21T23:35:45.930Z,4.38
2023-04-21T23:38:12.998Z,3.83
2023-04-21T23:40:40.131Z,3.78
2023-04-21T23:43:07.808Z,4.00
2023-04-21T23:45:35.106Z,4.00
2023-04-21T23:48:02.327Z,4.05
2023-04-21T23:50:29.520Z,3.78
2023-04-21T23:52:56.673Z,3.70
2023-04-21T23:55:23.782Z,3.70
2023-04-21T23:57:50.805Z,3.70
